sensor_id;sensor_type;location;lat;lon;timestamp;temperature;humidity
3919;DHT22;1974;48.670;8.994;2023-08-08T00:01:55;13.30;99.90
3919;DHT22;1974;48.670;8.994;2023-08-08T00:04:21;13.30;99.90
3919;DHT22;1974;48.670;8.994;2023-08-08T00:06:48;13.40;99.90
3919;DHT22;1974;48.670;8.994;2023-08-08T00:09:16;13.20;99.90
3919;DHT22;1974;48.670;8.994;2023-08-08T00:11:43;13.30;99.90
3919;DHT22;1974;48.670;8.994;2023-08-08T00:14:10;13.30;99.90
3919;DHT22;1974;48.670;8.994;2023-08-08T00:16:36;13.30;99.90
3919;DHT22;1974;48.670;8.994;2023-08-08T00:19:03;13.40;99.90
3919;DHT22;1974;48.670;8.994;2023-08-08T00:21:30;13.40;99.90
3919;DHT22;1974;48.670;8.994;2023-08-08T00:23:57;13.40;99.90
3919;DHT22;1974;48.670;8.994;2023-08-08T00:26:25;13.50;99.90
3919;DHT22;1974;48.670;8.994;2023-08-08T00:28:51;13.50;99.90
3919;DHT22;1974;48.670;8.994;2023-08-08T00:31:19;13.40;99.90
3919;DHT22;1974;48.670;8.994;2023-08-08T00:33:45;13.40;99.90
3919;DHT22;1974;48.670;8.994;2023-08-08T00:36:12;13.50;99.90
3919;DHT22;1974;48.670;8.994;2023-08-08T00:38:40;13.50;99.90
3919;DHT22;1974;48.670;8.994;2023-08-08T00:41:07;13.50;99.90
3919;DHT22;1974;48.670;8.994;2023-08-08T00:43:35;13.40;99.90
3919;DHT22;1974;48.670;8.994;2023-08-08T00:46:02;13.60;99.90
3919;DHT22;1974;48.670;8.994;2023-08-08T00:48:28;13.60;99.90
3919;DHT22;1974;48.670;8.994;2023-08-08T00:50:55;13.60;99.90
3919;DHT22;1974;48.670;8.994;2023-08-08T00:53:22;13.60;99.90
3919;DHT22;1974;48.670;8.994;2023-08-08T00:55:51;13.60;99.90
3919;DHT22;1974;48.670;8.994;2023-08-08T00:58:19;13.60;99.90
3919;DHT22;1974;48.670;8.994;2023-08-08T01:00:47;13.60;99.90
3919;DHT22;1974;48.670;8.994;2023-08-08T01:03:14;13.60;99.90
3919;DHT22;1974;48.670;8.994;2023-08-08T01:05:44;13.50;99.90
3919;DHT22;1974;48.670;8.994;2023-08-08T01:08:16;13.60;99.90
3919;DHT22;1974;48.670;8.994;2023-08-08T01:10:46;13.60;99.90
3919;DHT22;1974;48.670;8.994;2023-08-08T01:13:15;13.60;99.90
3919;DHT22;1974;48.670;8.994;2023-08-08T01:15:45;13.60;99.90
3919;DHT22;1974;48.670;8.994;2023-08-08T01:18:14;13.60;99.90
3919;DHT22;1974;48.670;8.994;2023-08-08T01:20:42;13.70;99.90
3919;DHT22;1974;48.670;8.994;2023-08-08T01:23:14;13.60;99.90
3919;DHT22;1974;48.670;8.994;2023-08-08T01:25:44;13.60;99.90
3919;DHT22;1974;48.670;8.994;2023-08-08T01:28:12;13.60;99.90
3919;DHT22;1974;48.670;8.994;2023-08-08T01:30:39;13.60;99.90
3919;DHT22;1974;48.670;8.994;2023-08-08T01:33:06;13.60;99.90
3919;DHT22;1974;48.670;8.994;2023-08-08T01:35:37;13.50;99.90
3919;DHT22;1974;48.670;8.994;2023-08-08T01:38:11;13.50;99.90
3919;DHT22;1974;48.670;8.994;2023-08-08T01:40:39;13.50;99.90
3919;DHT22;1974;48.670;8.994;2023-08-08T01:43:10;13.50;99.90
3919;DHT22;1974;48.670;8.994;2023-08-08T01:45:38;13.50;99.90
3919;DHT22;1974;48.670;8.994;2023-08-08T01:48:09;13.40;99.90
3919;DHT22;1974;48.670;8.994;2023-08-08T01:50:37;13.50;99.90
3919;DHT22;1974;48.670;8.994;2023-08-08T01:53:04;13.50;99.90
3919;DHT22;1974;48.670;8.994;2023-08-08T01:55:30;13.40;99.90
3919;DHT22;1974;48.670;8.994;2023-08-08T01:57:57;13.40;99.90
3919;DHT22;1974;48.670;8.994;2023-08-08T02:00:25;13.40;99.90
3919;DHT22;1974;48.670;8.994;2023-08-08T02:02:52;13.40;99.90
3919;DHT22;1974;48.670;8.994;2023-08-08T02:05:19;13.40;99.90
3919;DHT22;1974;48.670;8.994;2023-08-08T02:07:46;13.30;99.90
3919;DHT22;1974;48.670;8.994;2023-08-08T02:10:13;13.30;99.90
3919;DHT22;1974;48.670;8.994;2023-08-08T02:12:39;13.30;99.90
3919;DHT22;1974;48.670;8.994;2023-08-08T02:15:07;13.30;99.90
3919;DHT22;1974;48.670;8.994;2023-08-08T02:17:37;13.30;99.90
3919;DHT22;1974;48.670;8.994;2023-08-08T02:20:05;13.20;99.90
3919;DHT22;1974;48.670;8.994;2023-08-08T02:22:32;13.20;99.90
3919;DHT22;1974;48.670;8.994;2023-08-08T02:24:59;13.30;99.90
3919;DHT22;1974;48.670;8.994;2023-08-08T02:27:25;13.30;99.90
3919;DHT22;1974;48.670;8.994;2023-08-08T02:29:52;13.30;99.90
3919;DHT22;1974;48.670;8.994;2023-08-08T02:32:19;13.30;99.90
3919;DHT22;1974;48.670;8.994;2023-08-08T02:34:47;13.30;99.90
3919;DHT22;1974;48.670;8.994;2023-08-08T02:37:14;13.20;99.90
3919;DHT22;1974;48.670;8.994;2023-08-08T02:39:41;13.10;99.90
3919;DHT22;1974;48.670;8.994;2023-08-08T02:42:08;13.10;99.90
3919;DHT22;1974;48.670;8.994;2023-08-08T02:44:35;13.20;99.90
3919;DHT22;1974;48.670;8.994;2023-08-08T02:47:01;13.20;99.90
3919;DHT22;1974;48.670;8.994;2023-08-08T02:49:28;13.20;99.90
3919;DHT22;1974;48.670;8.994;2023-08-08T02:51:56;13.10;99.90
3919;DHT22;1974;48.670;8.994;2023-08-08T02:54:23;13.20;99.90
3919;DHT22;1974;48.670;8.994;2023-08-08T02:56:50;13.10;99.90
3919;DHT22;1974;48.670;8.994;2023-08-08T02:59:16;13.10;99.90
3919;DHT22;1974;48.670;8.994;2023-08-08T03:01:43;13.00;99.90
3919;DHT22;1974;48.670;8.994;2023-08-08T03:04:10;13.10;99.90
3919;DHT22;1974;48.670;8.994;2023-08-08T03:06:37;13.00;99.90
3919;DHT22;1974;48.670;8.994;2023-08-08T03:09:05;13.00;99.90
3919;DHT22;1974;48.670;8.994;2023-08-08T03:11:32;13.00;99.90
3919;DHT22;1974;48.670;8.994;2023-08-08T03:13:59;12.90;99.90
3919;DHT22;1974;48.670;8.994;2023-08-08T03:16:26;12.90;99.90
3919;DHT22;1974;48.670;8.994;2023-08-08T03:18:52;12.90;99.90
3919;DHT22;1974;48.670;8.994;2023-08-08T03:21:19;12.90;99.90
3919;DHT22;1974;48.670;8.994;2023-08-08T03:23:46;12.90;99.90
3919;DHT22;1974;48.670;8.994;2023-08-08T03:26:14;12.90;99.90
3919;DHT22;1974;48.670;8.994;2023-08-08T03:28:40;12.90;99.90
3919;DHT22;1974;48.670;8.994;2023-08-08T03:31:07;12.90;99.90
3919;DHT22;1974;48.670;8.994;2023-08-08T03:33:34;12.90;99.90
3919;DHT22;1974;48.670;8.994;2023-08-08T03:36:01;13.00;99.90
3919;DHT22;1974;48.670;8.994;2023-08-08T03:38:27;13.00;99.90
3919;DHT22;1974;48.670;8.994;2023-08-08T03:40:54;13.10;99.90
3919;DHT22;1974;48.670;8.994;2023-08-08T03:43:22;13.10;99.90
3919;DHT22;1974;48.670;8.994;2023-08-08T03:45:49;13.20;99.90
3919;DHT22;1974;48.670;8.994;2023-08-08T03:48:16;13.30;99.90
3919;DHT22;1974;48.670;8.994;2023-08-08T03:50:42;13.00;99.90
3919;DHT22;1974;48.670;8.994;2023-08-08T03:53:09;13.20;99.90
3919;DHT22;1974;48.670;8.994;2023-08-08T03:55:36;13.20;99.90
3919;DHT22;1974;48.670;8.994;2023-08-08T03:58:03;13.20;99.90
3919;DHT22;1974;48.670;8.994;2023-08-08T04:00:32;13.20;99.90
3919;DHT22;1974;48.670;8.994;2023-08-08T04:02:59;13.20;99.90
3919;DHT22;1974;48.670;8.994;2023-08-08T04:05:25;13.20;99.90
3919;DHT22;1974;48.670;8.994;2023-08-08T04:07:52;13.20;99.90
3919;DHT22;1974;48.670;8.994;2023-08-08T04:10:19;13.20;99.90
3919;DHT22;1974;48.670;8.994;2023-08-08T04:12:45;13.20;99.90
3919;DHT22;1974;48.670;8.994;2023-08-08T04:15:12;13.20;99.90
3919;DHT22;1974;48.670;8.994;2023-08-08T04:17:40;13.10;99.90
3919;DHT22;1974;48.670;8.994;2023-08-08T04:20:08;13.10;99.90
3919;DHT22;1974;48.670;8.994;2023-08-08T04:22:35;13.20;99.90
3919;DHT22;1974;48.670;8.994;2023-08-08T04:25:03;13.10;99.90
3919;DHT22;1974;48.670;8.994;2023-08-08T04:27:30;13.10;99.90
3919;DHT22;1974;48.670;8.994;2023-08-08T04:29:57;13.10;99.90
3919;DHT22;1974;48.670;8.994;2023-08-08T04:32:24;13.10;99.90
3919;DHT22;1974;48.670;8.994;2023-08-08T04:34:52;13.10;99.90
3919;DHT22;1974;48.670;8.994;2023-08-08T04:37:18;13.10;99.90
3919;DHT22;1974;48.670;8.994;2023-08-08T04:39:45;13.10;99.90
3919;DHT22;1974;48.670;8.994;2023-08-08T04:42:12;13.10;99.90
3919;DHT22;1974;48.670;8.994;2023-08-08T04:44:39;13.20;99.90
3919;DHT22;1974;48.670;8.994;2023-08-08T04:47:05;13.10;99.90
3919;DHT22;1974;48.670;8.994;2023-08-08T04:49:32;13.10;99.90
3919;DHT22;1974;48.670;8.994;2023-08-08T04:52:00;13.10;99.90
3919;DHT22;1974;48.670;8.994;2023-08-08T04:54:27;13.20;99.90
3919;DHT22;1974;48.670;8.994;2023-08-08T04:56:54;13.30;99.90
3919;DHT22;1974;48.670;8.994;2023-08-08T04:59:20;13.30;99.90
3919;DHT22;1974;48.670;8.994;2023-08-08T05:01:47;13.20;99.90
3919;DHT22;1974;48.670;8.994;2023-08-08T05:04:14;13.30;99.90
3919;DHT22;1974;48.670;8.994;2023-08-08T05:06:41;13.30;99.90
3919;DHT22;1974;48.670;8.994;2023-08-08T05:09:09;13.40;99.90
3919;DHT22;1974;48.670;8.994;2023-08-08T05:11:36;13.30;99.90
3919;DHT22;1974;48.670;8.994;2023-08-08T05:14:03;13.30;99.90
3919;DHT22;1974;48.670;8.994;2023-08-08T05:16:29;13.20;99.90
3919;DHT22;1974;48.670;8.994;2023-08-08T05:18:56;13.20;99.90
3919;DHT22;1974;48.670;8.994;2023-08-08T05:21:23;13.30;99.90
3919;DHT22;1974;48.670;8.994;2023-08-08T05:23:50;13.20;99.90
3919;DHT22;1974;48.670;8.994;2023-08-08T05:26:18;13.20;99.90
3919;DHT22;1974;48.670;8.994;2023-08-08T05:28:44;13.10;99.90
3919;DHT22;1974;48.670;8.994;2023-08-08T05:31:11;13.10;99.90
3919;DHT22;1974;48.670;8.994;2023-08-08T05:33:38;13.10;99.90
3919;DHT22;1974;48.670;8.994;2023-08-08T05:36:05;13.20;99.90
3919;DHT22;1974;48.670;8.994;2023-08-08T05:38:31;13.20;99.90
3919;DHT22;1974;48.670;8.994;2023-08-08T05:40:58;13.30;99.90
3919;DHT22;1974;48.670;8.994;2023-08-08T05:43:27;13.40;99.90
3919;DHT22;1974;48.670;8.994;2023-08-08T05:45:54;13.30;99.90
3919;DHT22;1974;48.670;8.994;2023-08-08T05:48:20;13.40;99.90
3919;DHT22;1974;48.670;8.994;2023-08-08T05:50:47;13.40;99.90
3919;DHT22;1974;48.670;8.994;2023-08-08T05:53:14;13.50;99.90
3919;DHT22;1974;48.670;8.994;2023-08-08T05:55:41;13.50;99.90
3919;DHT22;1974;48.670;8.994;2023-08-08T05:58:08;13.60;99.90
3919;DHT22;1974;48.670;8.994;2023-08-08T06:00:36;13.70;99.90
3919;DHT22;1974;48.670;8.994;2023-08-08T06:03:04;13.80;99.90
3919;DHT22;1974;48.670;8.994;2023-08-08T06:05:31;13.80;99.90
3919;DHT22;1974;48.670;8.994;2023-08-08T06:07:57;13.90;99.90
3919;DHT22;1974;48.670;8.994;2023-08-08T06:10:24;14.00;99.90
3919;DHT22;1974;48.670;8.994;2023-08-08T06:12:51;14.20;99.90
3919;DHT22;1974;48.670;8.994;2023-08-08T06:15:18;14.30;99.90
3919;DHT22;1974;48.670;8.994;2023-08-08T06:17:46;14.50;99.90
3919;DHT22;1974;48.670;8.994;2023-08-08T06:20:13;14.60;99.90
3919;DHT22;1974;48.670;8.994;2023-08-08T06:22:41;14.70;99.90
3919;DHT22;1974;48.670;8.994;2023-08-08T06:25:08;14.80;99.90
3919;DHT22;1974;48.670;8.994;2023-08-08T06:27:36;15.00;99.90
3919;DHT22;1974;48.670;8.994;2023-08-08T06:30:04;15.20;99.90
3919;DHT22;1974;48.670;8.994;2023-08-08T06:32:31;15.30;99.90
3919;DHT22;1974;48.670;8.994;2023-08-08T06:34:59;15.40;99.90
3919;DHT22;1974;48.670;8.994;2023-08-08T06:37:26;15.60;99.90
3919;DHT22;1974;48.670;8.994;2023-08-08T06:39:53;15.70;99.90
3919;DHT22;1974;48.670;8.994;2023-08-08T06:42:20;15.80;99.90
3919;DHT22;1974;48.670;8.994;2023-08-08T06:44:47;16.00;99.90
3919;DHT22;1974;48.670;8.994;2023-08-08T06:47:14;16.10;99.90
3919;DHT22;1974;48.670;8.994;2023-08-08T06:49:41;16.20;99.90
3919;DHT22;1974;48.670;8.994;2023-08-08T06:52:09;16.40;99.90
3919;DHT22;1974;48.670;8.994;2023-08-08T06:54:36;16.50;99.90
3919;DHT22;1974;48.670;8.994;2023-08-08T06:57:03;16.50;99.90
3919;DHT22;1974;48.670;8.994;2023-08-08T06:59:29;16.70;99.90
3919;DHT22;1974;48.670;8.994;2023-08-08T07:01:56;16.80;99.90
3919;DHT22;1974;48.670;8.994;2023-08-08T07:04:23;17.00;99.90
3919;DHT22;1974;48.670;8.994;2023-08-08T07:06:50;17.20;99.90
3919;DHT22;1974;48.670;8.994;2023-08-08T07:09:18;17.30;99.90
3919;DHT22;1974;48.670;8.994;2023-08-08T07:11:45;17.40;99.90
3919;DHT22;1974;48.670;8.994;2023-08-08T07:14:12;17.60;99.90
3919;DHT22;1974;48.670;8.994;2023-08-08T07:16:39;17.60;99.90
3919;DHT22;1974;48.670;8.994;2023-08-08T07:19:06;17.60;99.90
3919;DHT22;1974;48.670;8.994;2023-08-08T07:21:32;17.70;99.90
3919;DHT22;1974;48.670;8.994;2023-08-08T07:23:59;17.70;99.90
3919;DHT22;1974;48.670;8.994;2023-08-08T07:26:27;17.90;99.90
3919;DHT22;1974;48.670;8.994;2023-08-08T07:28:54;17.90;99.90
3919;DHT22;1974;48.670;8.994;2023-08-08T07:31:21;18.00;99.90
3919;DHT22;1974;48.670;8.994;2023-08-08T07:33:48;18.30;99.90
3919;DHT22;1974;48.670;8.994;2023-08-08T07:36:14;18.40;99.90
3919;DHT22;1974;48.670;8.994;2023-08-08T07:38:41;18.50;99.90
3919;DHT22;1974;48.670;8.994;2023-08-08T07:41:08;18.60;99.90
3919;DHT22;1974;48.670;8.994;2023-08-08T07:43:36;18.60;99.90
3919;DHT22;1974;48.670;8.994;2023-08-08T07:46:03;18.80;99.90
3919;DHT22;1974;48.670;8.994;2023-08-08T07:48:31;18.80;99.90
3919;DHT22;1974;48.670;8.994;2023-08-08T07:50:58;18.90;99.90
3919;DHT22;1974;48.670;8.994;2023-08-08T07:53:24;19.00;99.90
3919;DHT22;1974;48.670;8.994;2023-08-08T07:55:51;19.10;99.90
3919;DHT22;1974;48.670;8.994;2023-08-08T07:58:18;19.10;99.90
3919;DHT22;1974;48.670;8.994;2023-08-08T08:00:48;18.90;99.90
3919;DHT22;1974;48.670;8.994;2023-08-08T08:03:15;18.90;99.90
3919;DHT22;1974;48.670;8.994;2023-08-08T08:05:42;18.80;99.90
3919;DHT22;1974;48.670;8.994;2023-08-08T08:08:09;18.60;99.90
3919;DHT22;1974;48.670;8.994;2023-08-08T08:10:35;18.60;99.90
3919;DHT22;1974;48.670;8.994;2023-08-08T08:13:02;18.70;99.90
3919;DHT22;1974;48.670;8.994;2023-08-08T08:15:29;18.70;99.90
3919;DHT22;1974;48.670;8.994;2023-08-08T08:17:57;18.80;99.90
3919;DHT22;1974;48.670;8.994;2023-08-08T08:20:24;19.00;99.90
3919;DHT22;1974;48.670;8.994;2023-08-08T08:22:51;19.00;99.90
3919;DHT22;1974;48.670;8.994;2023-08-08T08:25:18;19.00;99.90
3919;DHT22;1974;48.670;8.994;2023-08-08T08:27:44;19.00;99.90
3919;DHT22;1974;48.670;8.994;2023-08-08T08:30:12;19.00;99.90
3919;DHT22;1974;48.670;8.994;2023-08-08T08:32:39;19.00;99.90
3919;DHT22;1974;48.670;8.994;2023-08-08T08:35:09;19.10;99.90
3919;DHT22;1974;48.670;8.994;2023-08-08T08:37:37;19.00;99.90
3919;DHT22;1974;48.670;8.994;2023-08-08T08:40:05;18.70;99.90
3919;DHT22;1974;48.670;8.994;2023-08-08T08:42:32;18.70;99.90
3919;DHT22;1974;48.670;8.994;2023-08-08T08:45:01;18.60;99.90
3919;DHT22;1974;48.670;8.994;2023-08-08T08:47:31;18.70;99.90
3919;DHT22;1974;48.670;8.994;2023-08-08T08:49:58;18.80;99.90
3919;DHT22;1974;48.670;8.994;2023-08-08T08:52:28;19.00;99.90
3919;DHT22;1974;48.670;8.994;2023-08-08T08:54:55;19.30;99.90
3919;DHT22;1974;48.670;8.994;2023-08-08T08:57:22;19.50;99.90
3919;DHT22;1974;48.670;8.994;2023-08-08T08:59:49;19.50;99.90
3919;DHT22;1974;48.670;8.994;2023-08-08T09:02:17;19.50;99.90
3919;DHT22;1974;48.670;8.994;2023-08-08T09:04:44;19.50;99.90
3919;DHT22;1974;48.670;8.994;2023-08-08T09:07:12;19.50;99.90
3919;DHT22;1974;48.670;8.994;2023-08-08T09:09:43;19.70;99.90
3919;DHT22;1974;48.670;8.994;2023-08-08T09:12:10;19.60;99.90
3919;DHT22;1974;48.670;8.994;2023-08-08T09:14:40;19.70;99.90
3919;DHT22;1974;48.670;8.994;2023-08-08T09:17:10;19.70;99.90
3919;DHT22;1974;48.670;8.994;2023-08-08T09:19:36;19.70;99.90
3919;DHT22;1974;48.670;8.994;2023-08-08T09:22:03;19.80;99.90
3919;DHT22;1974;48.670;8.994;2023-08-08T09:24:31;19.80;99.90
3919;DHT22;1974;48.670;8.994;2023-08-08T09:27:00;19.90;99.90
3919;DHT22;1974;48.670;8.994;2023-08-08T09:29:27;19.90;99.90
3919;DHT22;1974;48.670;8.994;2023-08-08T09:31:54;19.90;99.90
3919;DHT22;1974;48.670;8.994;2023-08-08T09:34:25;20.00;99.90
3919;DHT22;1974;48.670;8.994;2023-08-08T09:36:52;20.10;99.90
3919;DHT22;1974;48.670;8.994;2023-08-08T09:39:19;20.40;99.90
3919;DHT22;1974;48.670;8.994;2023-08-08T09:41:46;20.50;99.90
3919;DHT22;1974;48.670;8.994;2023-08-08T09:44:14;20.60;99.90
3919;DHT22;1974;48.670;8.994;2023-08-08T09:46:42;20.40;99.90
3919;DHT22;1974;48.670;8.994;2023-08-08T09:49:10;20.40;99.90
3919;DHT22;1974;48.670;8.994;2023-08-08T09:51:37;20.40;99.90
3919;DHT22;1974;48.670;8.994;2023-08-08T09:54:05;20.70;99.90
3919;DHT22;1974;48.670;8.994;2023-08-08T09:56:33;20.70;99.90
3919;DHT22;1974;48.670;8.994;2023-08-08T09:59:00;20.70;99.90
3919;DHT22;1974;48.670;8.994;2023-08-08T10:01:29;20.70;99.90
3919;DHT22;1974;48.670;8.994;2023-08-08T10:03:57;20.70;99.90
3919;DHT22;1974;48.670;8.994;2023-08-08T10:06:24;20.50;99.90
3919;DHT22;1974;48.670;8.994;2023-08-08T10:08:51;20.50;99.90
3919;DHT22;1974;48.670;8.994;2023-08-08T10:11:18;20.60;99.90
3919;DHT22;1974;48.670;8.994;2023-08-08T10:13:50;20.80;99.90
3919;DHT22;1974;48.670;8.994;2023-08-08T10:16:17;21.00;99.90
3919;DHT22;1974;48.670;8.994;2023-08-08T10:18:54;20.90;99.90
3919;DHT22;1974;48.670;8.994;2023-08-08T10:21:23;20.80;99.90
3919;DHT22;1974;48.670;8.994;2023-08-08T10:24:01;20.70;99.90
3919;DHT22;1974;48.670;8.994;2023-08-08T10:26:28;20.70;99.90
3919;DHT22;1974;48.670;8.994;2023-08-08T10:28:56;20.70;99.90
3919;DHT22;1974;48.670;8.994;2023-08-08T10:31:23;20.80;99.90
3919;DHT22;1974;48.670;8.994;2023-08-08T10:34:01;20.80;99.90
3919;DHT22;1974;48.670;8.994;2023-08-08T10:36:43;21.00;99.90
3919;DHT22;1974;48.670;8.994;2023-08-08T10:39:14;21.10;99.90
3919;DHT22;1974;48.670;8.994;2023-08-08T10:41:45;21.10;99.90
3919;DHT22;1974;48.670;8.994;2023-08-08T10:44:12;21.10;99.90
3919;DHT22;1974;48.670;8.994;2023-08-08T10:46:41;21.10;99.90
3919;DHT22;1974;48.670;8.994;2023-08-08T10:49:12;21.20;99.90
3919;DHT22;1974;48.670;8.994;2023-08-08T10:51:41;21.20;99.90
3919;DHT22;1974;48.670;8.994;2023-08-08T10:54:13;21.10;99.90
3919;DHT22;1974;48.670;8.994;2023-08-08T10:56:40;21.10;99.90
3919;DHT22;1974;48.670;8.994;2023-08-08T10:59:15;21.30;99.90
3919;DHT22;1974;48.670;8.994;2023-08-08T11:01:45;21.60;99.90
3919;DHT22;1974;48.670;8.994;2023-08-08T11:04:15;21.80;99.90
3919;DHT22;1974;48.670;8.994;2023-08-08T11:06:41;21.80;99.90
3919;DHT22;1974;48.670;8.994;2023-08-08T11:09:09;21.90;99.90
3919;DHT22;1974;48.670;8.994;2023-08-08T11:11:37;22.00;99.90
3919;DHT22;1974;48.670;8.994;2023-08-08T11:14:12;22.30;99.90
3919;DHT22;1974;48.670;8.994;2023-08-08T11:16:39;22.40;99.90
3919;DHT22;1974;48.670;8.994;2023-08-08T11:19:06;22.40;99.90
3919;DHT22;1974;48.670;8.994;2023-08-08T11:21:35;22.30;99.90
3919;DHT22;1974;48.670;8.994;2023-08-08T11:24:06;22.30;99.90
3919;DHT22;1974;48.670;8.994;2023-08-08T11:26:33;22.10;99.90
3919;DHT22;1974;48.670;8.994;2023-08-08T11:29:01;22.00;99.90
3919;DHT22;1974;48.670;8.994;2023-08-08T11:31:28;21.80;99.90
3919;DHT22;1974;48.670;8.994;2023-08-08T11:33:56;21.60;99.90
3919;DHT22;1974;48.670;8.994;2023-08-08T11:36:23;21.40;99.90
3919;DHT22;1974;48.670;8.994;2023-08-08T11:38:51;21.40;99.90
3919;DHT22;1974;48.670;8.994;2023-08-08T11:41:22;21.40;99.90
3919;DHT22;1974;48.670;8.994;2023-08-08T11:43:50;21.40;99.90
3919;DHT22;1974;48.670;8.994;2023-08-08T11:46:17;21.60;99.90
3919;DHT22;1974;48.670;8.994;2023-08-08T11:48:46;21.80;99.90
3919;DHT22;1974;48.670;8.994;2023-08-08T11:51:15;22.00;99.90
3919;DHT22;1974;48.670;8.994;2023-08-08T11:53:49;22.20;99.90
3919;DHT22;1974;48.670;8.994;2023-08-08T11:56:19;22.00;99.90
3919;DHT22;1974;48.670;8.994;2023-08-08T11:58:46;21.80;99.90
3919;DHT22;1974;48.670;8.994;2023-08-08T12:01:15;21.60;99.90
3919;DHT22;1974;48.670;8.994;2023-08-08T12:03:42;21.40;99.90
3919;DHT22;1974;48.670;8.994;2023-08-08T12:06:12;21.30;99.90
3919;DHT22;1974;48.670;8.994;2023-08-08T12:08:41;21.30;99.90
3919;DHT22;1974;48.670;8.994;2023-08-08T12:11:09;21.30;99.90
3919;DHT22;1974;48.670;8.994;2023-08-08T12:13:38;21.10;99.90
3919;DHT22;1974;48.670;8.994;2023-08-08T12:16:06;21.10;99.90
3919;DHT22;1974;48.670;8.994;2023-08-08T12:18:35;21.10;99.90
3919;DHT22;1974;48.670;8.994;2023-08-08T12:21:03;21.10;99.90
3919;DHT22;1974;48.670;8.994;2023-08-08T12:23:30;21.20;99.90
3919;DHT22;1974;48.670;8.994;2023-08-08T12:25:58;21.20;99.90
3919;DHT22;1974;48.670;8.994;2023-08-08T12:28:25;21.30;99.90
3919;DHT22;1974;48.670;8.994;2023-08-08T12:30:53;21.40;99.90
3919;DHT22;1974;48.670;8.994;2023-08-08T12:33:19;21.60;99.90
3919;DHT22;1974;48.670;8.994;2023-08-08T12:35:47;21.80;99.90
3919;DHT22;1974;48.670;8.994;2023-08-08T12:38:14;21.90;99.90
3919;DHT22;1974;48.670;8.994;2023-08-08T12:40:41;21.90;99.90
3919;DHT22;1974;48.670;8.994;2023-08-08T12:43:09;21.90;99.90
3919;DHT22;1974;48.670;8.994;2023-08-08T12:45:38;21.90;99.90
3919;DHT22;1974;48.670;8.994;2023-08-08T12:48:07;21.80;99.90
3919;DHT22;1974;48.670;8.994;2023-08-08T12:50:34;21.70;99.90
3919;DHT22;1974;48.670;8.994;2023-08-08T12:53:01;21.60;99.90
3919;DHT22;1974;48.670;8.994;2023-08-08T12:55:29;21.50;99.90
3919;DHT22;1974;48.670;8.994;2023-08-08T12:57:57;21.40;99.90
3919;DHT22;1974;48.670;8.994;2023-08-08T13:00:24;21.20;99.90
3919;DHT22;1974;48.670;8.994;2023-08-08T13:02:50;21.00;99.90
3919;DHT22;1974;48.670;8.994;2023-08-08T13:05:18;20.90;99.90
3919;DHT22;1974;48.670;8.994;2023-08-08T13:07:45;20.70;99.90
3919;DHT22;1974;48.670;8.994;2023-08-08T13:10:13;20.60;99.90
3919;DHT22;1974;48.670;8.994;2023-08-08T13:12:40;20.50;99.90
3919;DHT22;1974;48.670;8.994;2023-08-08T13:15:07;20.40;99.90
3919;DHT22;1974;48.670;8.994;2023-08-08T13:17:34;20.60;99.90
3919;DHT22;1974;48.670;8.994;2023-08-08T13:20:01;20.70;99.90
3919;DHT22;1974;48.670;8.994;2023-08-08T13:22:30;20.70;99.90
3919;DHT22;1974;48.670;8.994;2023-08-08T13:24:56;20.60;99.90
3919;DHT22;1974;48.670;8.994;2023-08-08T13:27:23;20.70;99.90
3919;DHT22;1974;48.670;8.994;2023-08-08T13:29:50;20.70;99.90
3919;DHT22;1974;48.670;8.994;2023-08-08T13:32:17;20.80;99.90
3919;DHT22;1974;48.670;8.994;2023-08-08T13:34:43;20.80;99.90
3919;DHT22;1974;48.670;8.994;2023-08-08T13:37:10;20.70;99.90
3919;DHT22;1974;48.670;8.994;2023-08-08T13:39:38;20.60;99.90
3919;DHT22;1974;48.670;8.994;2023-08-08T13:42:05;20.60;99.90
3919;DHT22;1974;48.670;8.994;2023-08-08T13:44:32;20.50;99.90
3919;DHT22;1974;48.670;8.994;2023-08-08T13:46:59;20.50;99.90
3919;DHT22;1974;48.670;8.994;2023-08-08T13:49:26;20.40;99.90
3919;DHT22;1974;48.670;8.994;2023-08-08T13:51:53;20.50;99.90
3919;DHT22;1974;48.670;8.994;2023-08-08T13:54:20;20.50;99.90
3919;DHT22;1974;48.670;8.994;2023-08-08T13:56:48;20.40;99.90
3919;DHT22;1974;48.670;8.994;2023-08-08T13:59:15;20.50;99.90
3919;DHT22;1974;48.670;8.994;2023-08-08T14:01:42;20.50;99.90
3919;DHT22;1974;48.670;8.994;2023-08-08T14:04:08;20.60;99.90
3919;DHT22;1974;48.670;8.994;2023-08-08T14:06:35;20.50;99.90
3919;DHT22;1974;48.670;8.994;2023-08-08T14:09:02;20.50;99.90
3919;DHT22;1974;48.670;8.994;2023-08-08T14:11:30;20.40;99.90
3919;DHT22;1974;48.670;8.994;2023-08-08T14:13:58;20.40;99.90
3919;DHT22;1974;48.670;8.994;2023-08-08T14:16:24;20.30;99.90
3919;DHT22;1974;48.670;8.994;2023-08-08T14:18:51;20.20;99.90
3919;DHT22;1974;48.670;8.994;2023-08-08T14:21:18;20.20;99.90
3919;DHT22;1974;48.670;8.994;2023-08-08T14:23:45;20.10;99.90
3919;DHT22;1974;48.670;8.994;2023-08-08T14:26:12;20.20;99.90
3919;DHT22;1974;48.670;8.994;2023-08-08T14:28:39;20.20;99.90
3919;DHT22;1974;48.670;8.994;2023-08-08T14:31:07;20.20;99.90
3919;DHT22;1974;48.670;8.994;2023-08-08T14:33:34;20.20;99.90
3919;DHT22;1974;48.670;8.994;2023-08-08T14:36:01;20.30;99.90
3919;DHT22;1974;48.670;8.994;2023-08-08T14:38:27;20.40;99.90
3919;DHT22;1974;48.670;8.994;2023-08-08T14:40:54;20.40;99.90
3919;DHT22;1974;48.670;8.994;2023-08-08T14:43:22;20.40;99.90
3919;DHT22;1974;48.670;8.994;2023-08-08T14:45:49;20.50;99.90
3919;DHT22;1974;48.670;8.994;2023-08-08T14:48:17;20.50;99.90
3919;DHT22;1974;48.670;8.994;2023-08-08T14:50:44;20.50;99.90
3919;DHT22;1974;48.670;8.994;2023-08-08T14:53:11;20.50;99.90
3919;DHT22;1974;48.670;8.994;2023-08-08T14:55:38;20.40;99.90
3919;DHT22;1974;48.670;8.994;2023-08-08T14:58:05;20.40;99.90
3919;DHT22;1974;48.670;8.994;2023-08-08T15:00:32;20.30;99.90
3919;DHT22;1974;48.670;8.994;2023-08-08T15:02:59;20.20;99.90
3919;DHT22;1974;48.670;8.994;2023-08-08T15:05:27;20.10;99.90
3919;DHT22;1974;48.670;8.994;2023-08-08T15:07:53;20.20;99.90
3919;DHT22;1974;48.670;8.994;2023-08-08T15:10:20;20.30;99.90
3919;DHT22;1974;48.670;8.994;2023-08-08T15:12:47;20.40;99.90
3919;DHT22;1974;48.670;8.994;2023-08-08T15:15:14;20.40;99.90
3919;DHT22;1974;48.670;8.994;2023-08-08T15:17:42;20.50;99.90
3919;DHT22;1974;48.670;8.994;2023-08-08T15:20:10;20.50;99.90
3919;DHT22;1974;48.670;8.994;2023-08-08T15:22:38;20.50;99.90
3919;DHT22;1974;48.670;8.994;2023-08-08T15:25:06;20.40;99.90
3919;DHT22;1974;48.670;8.994;2023-08-08T15:27:32;20.30;99.90
3919;DHT22;1974;48.670;8.994;2023-08-08T15:29:59;20.30;99.90
3919;DHT22;1974;48.670;8.994;2023-08-08T15:32:26;20.20;99.90
3919;DHT22;1974;48.670;8.994;2023-08-08T15:34:53;20.00;99.90
3919;DHT22;1974;48.670;8.994;2023-08-08T15:37:19;20.00;99.90
3919;DHT22;1974;48.670;8.994;2023-08-08T15:39:47;20.00;99.90
3919;DHT22;1974;48.670;8.994;2023-08-08T15:42:14;19.90;99.90
3919;DHT22;1974;48.670;8.994;2023-08-08T15:44:41;19.90;99.90
3919;DHT22;1974;48.670;8.994;2023-08-08T15:47:08;19.90;99.90
3919;DHT22;1974;48.670;8.994;2023-08-08T15:49:34;19.80;99.90
3919;DHT22;1974;48.670;8.994;2023-08-08T15:52:01;19.80;99.90
3919;DHT22;1974;48.670;8.994;2023-08-08T15:54:28;19.80;99.90
3919;DHT22;1974;48.670;8.994;2023-08-08T15:56:56;19.70;99.90
3919;DHT22;1974;48.670;8.994;2023-08-08T15:59:23;19.70;99.90
3919;DHT22;1974;48.670;8.994;2023-08-08T16:01:50;19.60;99.90
3919;DHT22;1974;48.670;8.994;2023-08-08T16:04:17;19.60;99.90